x

Chivenor (03707) Weather Station

7:00 - Wed 10th Feb 2016 All times are GMT.

  • Wind
    3mph
  • Aire Temp 39°f
  • Sea Pressure 1003mb
  • Chivenor
  • Chivenor

More Historic Weather Station data

Upgrade to MSW Pro to gain access to the past 30 days of data for over 8000 Wavebouys and Weather Stations around the globe.

Join Pro

Comparision Forecast

View Surf forecast
   
mié 02/10 7:00 3
mph
1003mb 39f
6:00 1
mph
1003mb 43f
5:00 9
mph
1002mb 42f
4:00 9
mph
1002mb 45f
3:00 13
mph
1001mb 47f
2:00 11
mph
1001mb 47f
12:00 10
mph
1000mb 46f
10:00 10
mph
999mb 42f
9:00 5
mph
998mb 42f
5:00 29 43 mph 996mb 44f
4:00 31 43 mph 996mb 44f
3:00 28 40 mph 996mb 44f
2:00 30 45 mph 995mb 43f
1:00 25 45 mph 995mb 42f
12:00 30 45 mph 995mb 45f
mar 02/09 11:00 31 47 mph 994mb 45f
10:00 36 56 mph 993mb 45f
9:00 38 53 mph 992mb 44f
7:00 30 48 mph 991mb 45f
6:00 23 48 mph 990mb 44f
4:00 28 40 mph 989mb 45f
3:00 26 36 mph 988mb 46f
2:00 26 38 mph 988mb 45f
1:00 25 38 mph 987mb 46f
lun 02/08 5:00 39 55 mph 994mb 44f
4:00 38 56 mph 993mb 49f
3:00 39 60 mph 991mb 49f
2:00 44 66 mph 990mb 49f
1:00 47 71 mph 988mb 49f
12:00 44 64 mph 987mb 49f
11:00 39 66 mph 986mb 48f
10:00 46 68 mph 985mb 48f
9:00 46 66 mph 985mb 46f
8:00 44 64 mph 984mb 47f
7:00 41 63 mph 983mb 45f
6:00 43 59 mph 983mb 47f
5:00 41 60 mph 983mb 47f
4:00 36 56 mph 984mb 47f
3:00 31 63 mph 984mb 45f
2:00 33 52 mph 984mb 47f
1:00 37 53 mph 984mb 48f
12:00 28 64 mph 985mb 45f
dom 02/07 11:00 38 52 mph 985mb 49f
10:00 29 46 mph 984mb 51f
9:00 36
mph
985mb 50f
8:00 29 54 mph 985mb 50f
7:00 37 53 mph 986mb 52f
6:00 24 40 mph 987mb 48f
5:00 21 30 mph 989mb 46f
4:00 18
mph
992mb 45f
3:00 16 31 mph 993mb 45f
2:00 19 38 mph 994mb 45f
1:00 26 38 mph 995mb 47f
12:00 28 36 mph 995mb 49f
11:00 25 37 mph 995mb 48f
10:00 19 39 mph 994mb 47f
9:00 17 37 mph 993mb 46f
8:00 24 39 mph 992mb 45f
7:00 25 45 mph 991mb 45f
6:00 32 47 mph 990mb 46f
5:00 17 40 mph 989mb 45f
4:00 15
mph
989mb 42f
3:00 11 40 mph 989mb 41f
2:00 23 41 mph 989mb 42f
1:00 23 31 mph 988mb 44f
12:00 13 38 mph 988mb 44f
sáb 02/06 11:00 22 30 mph 987mb 46f
10:00 19 33 mph 986mb 45f
9:00 18
mph
986mb 47f